createdAt,value
2019-02-26T00:00:31.527Z,90.10
2019-02-26T00:03:02.410Z,90.10
2019-02-26T00:05:30.713Z,90.10
2019-02-26T00:08:02.438Z,90.20
2019-02-26T00:10:31.536Z,90.20
2019-02-26T00:13:00.448Z,90.20
2019-02-26T00:15:31.321Z,90.40
2019-02-26T00:17:59.154Z,90.50
2019-02-26T00:20:30.919Z,90.50
2019-02-26T00:22:59.664Z,90.60
2019-02-26T00:25:27.880Z,90.70
2019-02-26T00:27:58.114Z,90.60
2019-02-26T00:30:26.443Z,90.80
2019-02-26T00:32:55.481Z,90.70
2019-02-26T00:35:25.747Z,90.70
2019-02-26T00:37:55.693Z,90.70
2019-02-26T00:40:24.388Z,90.90
2019-02-26T00:42:56.513Z,90.90
2019-02-26T00:45:26.925Z,90.90
2019-02-26T00:47:53.043Z,91.00
2019-02-26T00:50:21.440Z,91.30
2019-02-26T00:52:49.858Z,91.00
2019-02-26T00:55:18.344Z,90.90
2019-02-26T00:57:46.728Z,91.10
2019-02-26T01:00:16.545Z,91.20
2019-02-26T01:02:45.199Z,91.50
2019-02-26T01:05:15.850Z,91.60
2019-02-26T01:07:46.729Z,91.60
2019-02-26T01:10:16.296Z,91.70
2019-02-26T01:12:45.059Z,91.80
2019-02-26T01:15:15.781Z,91.80
2019-02-26T01:17:44.173Z,91.90
2019-02-26T01:20:16.840Z,91.80
2019-02-26T01:22:45.615Z,91.70
2019-02-26T01:25:15.867Z,91.60
2019-02-26T01:27:46.012Z,91.40
2019-02-26T01:30:21.261Z,91.40
2019-02-26T01:32:46.019Z,91.20
2019-02-26T01:35:14.417Z,91.00
2019-02-26T01:37:42.859Z,91.10
2019-02-26T01:40:15.170Z,90.90
2019-02-26T01:42:47.322Z,90.70
2019-02-26T01:45:13.837Z,90.80
2019-02-26T01:47:42.904Z,90.80
2019-02-26T01:50:13.970Z,90.90
2019-02-26T01:52:43.271Z,91.00
2019-02-26T01:55:12.219Z,91.10
2019-02-26T01:57:42.816Z,91.10
2019-02-26T02:00:18.946Z,91.20
2019-02-26T02:02:47.377Z,91.40
2019-02-26T02:05:15.965Z,91.60
2019-02-26T02:07:48.486Z,91.60
2019-02-26T02:10:15.797Z,91.70
2019-02-26T02:12:44.226Z,91.90
2019-02-26T02:15:23.199Z,92.80
2019-02-26T02:17:48.528Z,92.90
2019-02-26T02:20:20.895Z,93.20
2019-02-26T02:22:47.214Z,93.30
2019-02-26T02:25:15.685Z,93.50
2019-02-26T02:27:47.684Z,93.50
2019-02-26T02:30:23.171Z,93.40
2019-02-26T02:32:52.324Z,93.00
2019-02-26T02:35:19.281Z,92.90
2019-02-26T02:37:47.918Z,92.70
2019-02-26T02:40:16.318Z,92.40
2019-02-26T02:42:46.499Z,92.30
2019-02-26T02:45:20.135Z,92.30
2019-02-26T02:47:44.974Z,92.10
2019-02-26T02:50:15.208Z,92.10
2019-02-26T02:52:44.444Z,92.00
2019-02-26T02:55:15.556Z,92.00
2019-02-26T02:57:43.348Z,91.90
2019-02-26T03:00:14.517Z,92.10
2019-02-26T03:02:46.036Z,92.10
2019-02-26T03:05:13.732Z,92.10
2019-02-26T03:07:46.068Z,92.20
2019-02-26T03:10:16.327Z,92.30
2019-02-26T03:12:48.681Z,92.30
2019-02-26T03:15:15.849Z,92.50
2019-02-26T03:17:44.318Z,92.70
2019-02-26T03:20:13.888Z,92.80
2019-02-26T03:22:46.086Z,92.80
2019-02-26T03:25:21.125Z,92.90
2019-02-26T03:27:47.780Z,93.00
2019-02-26T03:30:32.081Z,93.00
2019-02-26T03:32:58.732Z,93.00
2019-02-26T03:35:23.918Z,93.10
2019-02-26T03:37:55.639Z,93.20
2019-02-26T03:40:24.225Z,93.20
2019-02-26T03:42:52.670Z,93.20
2019-02-26T03:45:24.845Z,93.30
2019-02-26T03:47:51.203Z,93.40
2019-02-26T03:50:19.601Z,93.40
2019-02-26T03:52:47.982Z,93.40
2019-02-26T03:55:18.723Z,93.60
2019-02-26T03:57:47.618Z,93.40
2019-02-26T04:00:19.903Z,93.30
2019-02-26T04:02:51.215Z,93.20
2019-02-26T04:05:18.786Z,93.20
2019-02-26T04:07:51.617Z,93.10
2019-02-26T04:10:17.734Z,93.10
2019-02-26T04:12:48.962Z,93.10
2019-02-26T04:15:17.388Z,93.20
2019-02-26T04:17:45.795Z,93.40
2019-02-26T04:20:16.002Z,93.40
2019-02-26T04:22:49.015Z,93.50
2019-02-26T04:25:22.234Z,93.30
2019-02-26T04:28:08.144Z,93.20
2019-02-26T04:30:47.754Z,93.40
2019-02-26T04:33:21.284Z,93.60
2019-02-26T04:36:04.722Z,93.80
2019-02-26T04:39:10.787Z,93.80
2019-02-26T04:41:54.896Z,94.00
2019-02-26T04:44:35.170Z,94.30
2019-02-26T04:47:05.865Z,94.70
2019-02-26T04:49:36.276Z,95.10
2019-02-26T04:52:05.540Z,95.40
2019-02-26T04:54:36.882Z,95.70
2019-02-26T04:57:04.900Z,95.80
2019-02-26T04:59:34.873Z,95.80
2019-02-26T05:02:03.816Z,95.90
2019-02-26T05:04:34.032Z,96.00
2019-02-26T05:07:04.637Z,96.10
2019-02-26T05:09:34.773Z,96.30
2019-02-26T05:12:02.596Z,96.30
2019-02-26T05:14:31.253Z,96.40
2019-02-26T05:16:59.733Z,96.60
2019-02-26T05:19:28.136Z,96.30
2019-02-26T05:21:58.769Z,96.30
2019-02-26T05:24:26.663Z,96.40
2019-02-26T05:26:55.054Z,96.40
2019-02-26T05:29:23.777Z,96.60
2019-02-26T05:31:52.192Z,96.70
2019-02-26T05:34:22.619Z,96.80
2019-02-26T05:36:50.744Z,96.90
2019-02-26T05:39:21.057Z,96.90
2019-02-26T05:41:52.314Z,96.90
2019-02-26T05:44:19.410Z,97.00
2019-02-26T05:46:50.156Z,97.00
2019-02-26T05:49:19.487Z,97.00
2019-02-26T05:51:48.115Z,97.00
2019-02-26T05:54:18.609Z,97.20
2019-02-26T05:56:49.668Z,97.20
2019-02-26T05:59:18.075Z,97.10
2019-02-26T06:01:51.925Z,97.30
2019-02-26T06:04:20.678Z,97.40
2019-02-26T06:06:50.306Z,97.40
2019-02-26T06:09:20.101Z,97.40
2019-02-26T06:11:50.140Z,97.60
2019-02-26T06:14:18.438Z,97.70
2019-02-26T06:16:48.725Z,97.70
2019-02-26T06:19:18.375Z,97.70
2019-02-26T06:21:49.154Z,97.80
2019-02-26T06:24:20.256Z,97.80
2019-02-26T06:26:47.143Z,97.80
2019-02-26T06:29:19.985Z,97.80
2019-02-26T06:31:46.940Z,97.70
2019-02-26T06:34:16.739Z,97.50
2019-02-26T06:36:46.616Z,97.50
2019-02-26T06:39:20.220Z,97.40
2019-02-26T06:41:47.259Z,97.30
2019-02-26T06:44:16.781Z,97.20
2019-02-26T06:46:45.196Z,97.10
2019-02-26T06:49:14.991Z,97.50
2019-02-26T06:51:45.088Z,97.10
2019-02-26T06:54:15.486Z,97.20
2019-02-26T06:56:46.016Z,97.00
2019-02-26T06:59:14.464Z,96.80
2019-02-26T07:01:42.928Z,96.90
2019-02-26T07:04:12.908Z,96.90
2019-02-26T07:06:41.423Z,96.90
2019-02-26T07:09:10.961Z,97.30
2019-02-26T07:11:39.957Z,97.40
2019-02-26T07:14:10.210Z,97.40
2019-02-26T07:16:40.381Z,96.70
2019-02-26T07:19:09.196Z,96.70
2019-02-26T07:21:40.648Z,96.50
2019-02-26T07:24:08.875Z,96.50
2019-02-26T07:26:38.640Z,96.70
2019-02-26T07:29:08.201Z,96.50
2019-02-26T07:31:37.517Z,96.40
2019-02-26T07:34:06.077Z,96.10
2019-02-26T07:36:34.876Z,96.00
2019-02-26T07:39:05.130Z,95.40
2019-02-26T07:41:33.681Z,94.40
2019-02-26T07:44:02.097Z,94.20
2019-02-26T07:46:30.479Z,93.80
2019-02-26T07:49:01.901Z,93.20
2019-02-26T07:51:31.617Z,93.00
2019-02-26T07:54:00.716Z,92.80
2019-02-26T07:56:32.085Z,92.50
2019-02-26T07:59:01.480Z,92.80
2019-02-26T08:01:29.518Z,92.40
2019-02-26T08:03:57.905Z,92.70
2019-02-26T08:06:26.822Z,92.10
2019-02-26T08:08:56.469Z,91.80
2019-02-26T08:11:24.864Z,91.30
2019-02-26T08:13:54.329Z,91.30
2019-02-26T08:16:25.395Z,91.00
2019-02-26T08:18:54.110Z,90.80
2019-02-26T08:21:25.204Z,91.00
2019-02-26T08:23:53.791Z,91.40
2019-02-26T08:26:24.247Z,91.40
2019-02-26T08:28:52.484Z,91.20
2019-02-26T08:31:23.034Z,91.20
2019-02-26T08:33:51.787Z,90.70
2019-02-26T08:36:20.405Z,90.20
2019-02-26T08:38:48.809Z,89.30
2019-02-26T08:41:17.204Z,88.30
2019-02-26T08:43:47.103Z,88.10
2019-02-26T08:46:17.163Z,88.10
2019-02-26T08:48:48.059Z,89.20
2019-02-26T08:51:18.815Z,89.10
2019-02-26T08:53:47.602Z,88.50
2019-02-26T08:56:18.697Z,87.80
2019-02-26T08:58:46.744Z,87.40
2019-02-26T09:01:15.186Z,86.90
2019-02-26T09:03:43.568Z,86.50
2019-02-26T09:06:13.882Z,86.00
2019-02-26T09:08:43.123Z,85.60
2019-02-26T09:11:13.445Z,85.10
2019-02-26T09:13:43.764Z,83.50
2019-02-26T09:16:11.884Z,82.90
2019-02-26T09:18:40.616Z,82.30
2019-02-26T09:21:10.268Z,82.40
2019-02-26T09:23:39.420Z,82.30
2019-02-26T09:26:07.867Z,81.50
2019-02-26T09:28:36.293Z,80.40
2019-02-26T09:31:06.652Z,79.90
2019-02-26T09:33:35.620Z,79.90
2019-02-26T09:36:04.953Z,79.60
2019-02-26T09:38:33.347Z,78.00
2019-02-26T09:41:01.742Z,77.10
2019-02-26T09:43:30.265Z,75.00
2019-02-26T09:45:58.657Z,73.40
2019-02-26T09:48:27.045Z,72.90
2019-02-26T09:50:55.753Z,72.00
2019-02-26T09:53:24.141Z,71.90
2019-02-26T09:55:52.532Z,71.00
2019-02-26T09:58:22.909Z,70.90
2019-02-26T10:00:53.847Z,70.30
2019-02-26T10:03:21.225Z,69.90
2019-02-26T10:05:50.979Z,69.60
2019-02-26T10:08:20.359Z,69.20
2019-02-26T10:10:51.938Z,68.80
2019-02-26T10:13:22.415Z,68.60
2019-02-26T10:15:50.359Z,67.40
2019-02-26T10:18:21.003Z,67.00
2019-02-26T10:20:50.425Z,66.00
2019-02-26T10:23:19.768Z,65.40
2019-02-26T10:25:53.015Z,63.50
2019-02-26T10:28:21.622Z,62.40
2019-02-26T10:30:49.571Z,61.30
2019-02-26T10:33:20.883Z,62.40
2019-02-26T10:35:49.894Z,61.00
2019-02-26T10:38:18.499Z,60.50
2019-02-26T10:40:53.815Z,59.70
2019-02-26T10:43:17.091Z,60.20
2019-02-26T10:45:47.570Z,59.70
2019-02-26T10:48:16.836Z,58.00
2019-02-26T10:50:49.017Z,57.10
2019-02-26T10:53:19.388Z,56.40
2019-02-26T10:55:46.041Z,53.00
2019-02-26T10:58:14.607Z,52.00
2019-02-26T11:00:43.134Z,52.10
2019-02-26T11:03:12.954Z,51.50
2019-02-26T11:05:42.616Z,51.30
2019-02-26T11:08:11.806Z,51.30
2019-02-26T11:10:43.969Z,51.60
2019-02-26T11:13:12.969Z,51.40
2019-02-26T11:15:40.778Z,50.90
2019-02-26T11:18:11.808Z,50.20
2019-02-26T11:20:39.389Z,49.30
2019-02-26T11:23:08.970Z,49.20
2019-02-26T11:25:37.940Z,48.80
2019-02-26T11:28:07.544Z,48.90
2019-02-26T11:30:36.453Z,49.50
2019-02-26T11:33:06.148Z,47.00
2019-02-26T11:35:35.063Z,46.30
2019-02-26T11:38:03.526Z,46.90
2019-02-26T11:40:31.949Z,46.60
2019-02-26T11:43:10.858Z,45.80
2019-02-26T11:45:32.870Z,45.90
2019-02-26T11:48:03.426Z,45.30
2019-02-26T11:50:30.856Z,45.30
2019-02-26T11:52:59.757Z,45.00
2019-02-26T11:55:29.911Z,44.50
2019-02-26T11:57:58.261Z,43.80
2019-02-26T12:00:33.853Z,44.40
2019-02-26T12:03:00.650Z,44.00
2019-02-26T12:05:33.069Z,43.00
2019-02-26T12:07:59.183Z,42.80
2019-02-26T12:10:29.679Z,43.30
2019-02-26T12:12:59.973Z,41.00
2019-02-26T12:15:30.206Z,41.10
2019-02-26T12:17:58.990Z,41.50
2019-02-26T12:20:27.474Z,40.60
2019-02-26T12:22:55.896Z,40.40
2019-02-26T12:25:24.302Z,39.70
2019-02-26T12:27:52.859Z,38.00
2019-02-26T12:30:22.520Z,38.20
2019-02-26T12:32:53.096Z,37.80
2019-02-26T12:35:21.184Z,38.00
2019-02-26T12:37:50.160Z,37.60
2019-02-26T12:40:22.185Z,37.00
2019-02-26T12:42:50.172Z,37.00
2019-02-26T12:45:26.025Z,37.00
2019-02-26T12:47:55.187Z,36.30
2019-02-26T12:50:27.224Z,35.70
2019-02-26T12:52:57.032Z,35.40
2019-02-26T12:55:29.522Z,32.70
2019-02-26T12:57:56.472Z,31.80
2019-02-26T13:00:26.262Z,31.30
2019-02-26T13:02:54.754Z,30.10
2019-02-26T13:05:23.256Z,29.40
2019-02-26T13:07:51.759Z,29.00
2019-02-26T13:10:22.311Z,29.40
2019-02-26T13:12:54.982Z,29.40
2019-02-26T13:15:21.683Z,28.20
2019-02-26T13:17:54.201Z,27.80
2019-02-26T13:20:24.637Z,26.40
2019-02-26T13:22:56.332Z,26.20
2019-02-26T13:25:26.773Z,25.80
2019-02-26T13:27:53.437Z,25.50
2019-02-26T13:30:28.210Z,26.40
2019-02-26T13:33:00.449Z,27.00
2019-02-26T13:35:26.726Z,27.70
2019-02-26T13:38:00.001Z,28.00
2019-02-26T13:40:28.390Z,28.60
2019-02-26T13:45:28.231Z,28.70
2019-02-26T13:48:01.125Z,28.30
2019-02-26T13:50:29.753Z,29.10
2019-02-26T13:52:58.425Z,28.00
2019-02-26T13:55:26.817Z,28.30
2019-02-26T13:57:55.286Z,27.30
2019-02-26T14:00:26.804Z,27.70
2019-02-26T14:02:53.976Z,27.80
2019-02-26T14:05:22.375Z,28.30
2019-02-26T14:07:50.937Z,28.20
2019-02-26T14:10:22.200Z,27.60
2019-02-26T14:12:50.857Z,27.10
2019-02-26T14:15:21.805Z,27.40
2019-02-26T14:17:50.489Z,27.00
2019-02-26T14:20:19.099Z,26.80
2019-02-26T14:22:47.483Z,27.30
2019-02-26T14:25:16.541Z,27.30
2019-02-26T14:27:44.963Z,27.00
2019-02-26T14:30:18.422Z,26.60
2019-02-26T14:32:46.889Z,26.20
2019-02-26T14:35:15.934Z,26.30
2019-02-26T14:37:44.543Z,26.10
2019-02-26T14:40:15.361Z,25.30
2019-02-26T14:42:43.750Z,24.60
2019-02-26T14:45:17.764Z,23.40
2019-02-26T14:47:46.208Z,23.40
2019-02-26T14:50:19.837Z,22.70
2019-02-26T14:52:48.229Z,23.10
2019-02-26T14:55:17.105Z,23.80
2019-02-26T14:57:45.673Z,23.00
2019-02-26T15:00:22.700Z,23.60
2019-02-26T15:02:51.264Z,23.60
2019-02-26T15:05:19.829Z,23.50
2019-02-26T15:07:48.427Z,23.30
2019-02-26T15:10:16.904Z,23.40
2019-02-26T15:12:46.063Z,23.90
2019-02-26T15:15:15.732Z,24.50
2019-02-26T15:17:44.502Z,25.40
2019-02-26T15:20:15.631Z,26.00
2019-02-26T15:22:44.048Z,26.60
2019-02-26T15:25:15.721Z,27.60
2019-02-26T15:27:44.115Z,28.00
2019-02-26T15:30:15.040Z,28.60
2019-02-26T15:32:43.787Z,28.30
2019-02-26T15:35:12.700Z,27.70
2019-02-26T15:37:41.375Z,28.30
2019-02-26T15:40:17.695Z,28.70
2019-02-26T15:42:46.176Z,28.90
2019-02-26T15:45:17.495Z,28.70
2019-02-26T15:47:46.280Z,27.70
2019-02-26T15:50:16.510Z,26.80
2019-02-26T15:52:44.941Z,26.30
2019-02-26T15:55:25.885Z,25.40
2019-02-26T15:57:54.486Z,25.00
2019-02-26T16:00:24.507Z,24.40
2019-02-26T16:02:53.444Z,24.80
2019-02-26T16:05:24.764Z,26.00
2019-02-26T16:07:53.574Z,26.90
2019-02-26T16:10:22.794Z,28.10
2019-02-26T16:12:51.421Z,28.90
2019-02-26T16:15:19.812Z,29.10
2019-02-26T16:17:48.214Z,29.10
2019-02-26T16:20:21.204Z,29.10
2019-02-26T16:22:49.593Z,29.80
2019-02-26T16:25:17.985Z,30.00
2019-02-26T16:27:46.450Z,30.20
2019-02-26T16:30:25.229Z,30.90
2019-02-26T16:32:54.072Z,32.10
2019-02-26T16:35:24.629Z,32.60
2019-02-26T16:37:52.652Z,32.80
2019-02-26T16:40:21.444Z,33.10
2019-02-26T16:42:49.832Z,33.60
2019-02-26T16:45:20.985Z,34.20
2019-02-26T16:47:49.525Z,34.50
2019-02-26T16:50:29.491Z,34.60
2019-02-26T16:53:00.073Z,34.80
2019-02-26T16:55:28.095Z,35.50
2019-02-26T16:57:56.492Z,36.20
2019-02-26T17:00:31.623Z,37.60
2019-02-26T17:03:01.229Z,39.30
2019-02-26T17:05:30.051Z,40.90
2019-02-26T17:07:58.853Z,42.10
2019-02-26T17:10:30.271Z,42.90
2019-02-26T17:13:01.976Z,43.40
2019-02-26T17:15:33.188Z,44.60
2019-02-26T17:18:01.569Z,45.80
2019-02-26T17:20:30.820Z,46.90
2019-02-26T17:22:59.228Z,48.20
2019-02-26T17:25:28.932Z,49.60
2019-02-26T17:27:57.573Z,50.80
2019-02-26T17:30:25.978Z,51.80
2019-02-26T17:32:54.556Z,53.70
2019-02-26T17:35:23.002Z,53.90
2019-02-26T17:37:51.417Z,55.50
2019-02-26T17:40:24.645Z,56.80
2019-02-26T17:42:54.333Z,57.60
2019-02-26T17:45:34.896Z,57.20
2019-02-26T17:48:05.746Z,57.30
2019-02-26T17:50:38.383Z,58.70
2019-02-26T17:53:07.077Z,59.60
2019-02-26T17:55:35.556Z,60.40
2019-02-26T17:58:04.028Z,60.00
2019-02-26T18:00:34.066Z,60.00
2019-02-26T18:03:06.471Z,61.10
2019-02-26T18:05:32.623Z,61.50
2019-02-26T18:08:01.017Z,62.10
2019-02-26T18:10:29.432Z,62.70
2019-02-26T18:12:58.119Z,63.80
2019-02-26T18:15:26.524Z,63.00
2019-02-26T18:17:54.933Z,64.10
2019-02-26T18:20:27.796Z,64.60
2019-02-26T18:22:53.976Z,65.70
2019-02-26T18:25:23.463Z,64.90
2019-02-26T18:27:51.954Z,65.50
2019-02-26T18:30:24.921Z,66.30
2019-02-26T18:32:57.338Z,66.60
2019-02-26T18:35:23.663Z,67.00
2019-02-26T18:37:52.048Z,67.40
2019-02-26T18:40:20.714Z,67.90
2019-02-26T18:42:49.433Z,68.50
2019-02-26T18:45:31.107Z,69.20
2019-02-26T18:47:59.877Z,69.50
2019-02-26T18:50:29.564Z,69.90
2019-02-26T18:52:58.475Z,70.40
2019-02-26T18:55:28.765Z,70.50
2019-02-26T18:57:57.718Z,70.60
2019-02-26T19:00:33.754Z,71.10
2019-02-26T19:03:02.146Z,71.40
2019-02-26T19:05:30.811Z,71.50
2019-02-26T19:07:59.237Z,72.10
2019-02-26T19:10:27.722Z,72.70
2019-02-26T19:12:56.165Z,73.10
2019-02-26T19:15:32.885Z,73.60
2019-02-26T19:18:02.691Z,74.00
2019-02-26T19:20:38.793Z,74.30
2019-02-26T19:23:07.189Z,74.50
2019-02-26T19:25:35.682Z,75.00
2019-02-26T19:28:04.179Z,75.30
2019-02-26T19:30:36.754Z,75.70
2019-02-26T19:33:03.546Z,76.10
2019-02-26T19:35:34.769Z,76.50
2019-02-26T19:38:03.812Z,76.80
2019-02-26T19:40:46.573Z,76.90
2019-02-26T19:43:14.968Z,77.30
2019-02-26T19:45:44.761Z,77.60
2019-02-26T19:48:13.377Z,78.00
2019-02-26T19:50:48.912Z,78.70
2019-02-26T19:53:17.383Z,78.80
2019-02-26T19:55:49.779Z,79.20
2019-02-26T19:58:18.412Z,79.30
2019-02-26T20:00:46.814Z,79.40
2019-02-26T20:03:15.249Z,79.70
2019-02-26T20:05:45.984Z,80.00
2019-02-26T20:08:13.768Z,80.10
2019-02-26T20:10:42.208Z,80.30
2019-02-26T20:13:12.651Z,81.00
2019-02-26T20:15:40.732Z,81.90
2019-02-26T20:18:19.792Z,82.70
2019-02-26T20:20:40.992Z,83.20
2019-02-26T20:23:09.460Z,83.40
2019-02-26T20:25:37.880Z,83.80
2019-02-26T20:28:07.189Z,83.90
2019-02-26T20:30:35.581Z,84.10
2019-02-26T20:33:04.831Z,84.50
2019-02-26T20:35:33.410Z,84.60
2019-02-26T20:38:01.800Z,84.60
2019-02-26T20:40:30.213Z,84.80
2019-02-26T20:43:01.356Z,84.80
2019-02-26T20:45:29.000Z,84.80
2019-02-26T20:47:57.396Z,84.40
2019-02-26T20:50:25.824Z,84.40
2019-02-26T20:52:54.232Z,84.60
2019-02-26T20:55:27.580Z,84.90
2019-02-26T20:57:56.008Z,85.40
2019-02-26T21:00:25.284Z,86.10
2019-02-26T21:02:54.412Z,87.20
2019-02-26T21:05:24.904Z,86.70
2019-02-26T21:07:53.132Z,86.80
2019-02-26T21:10:21.832Z,86.80
2019-02-26T21:12:50.224Z,86.60
2019-02-26T21:15:25.445Z,86.80
2019-02-26T21:17:57.742Z,86.80
2019-02-26T21:20:24.204Z,87.00
2019-02-26T21:22:54.555Z,87.00
2019-02-26T21:25:22.742Z,87.70
2019-02-26T21:27:51.155Z,86.70
2019-02-26T21:30:21.953Z,87.00
2019-02-26T21:32:50.636Z,87.10
2019-02-26T21:35:20.716Z,87.50
2019-02-26T21:37:49.233Z,87.60
2019-02-26T21:40:17.654Z,87.70
2019-02-26T21:42:46.056Z,87.60
2019-02-26T21:45:18.458Z,87.80
2019-02-26T21:47:46.879Z,88.20
2019-02-26T21:50:15.969Z,88.70
2019-02-26T21:52:44.355Z,88.70
2019-02-26T21:55:13.758Z,88.70
2019-02-26T21:57:42.155Z,88.70
2019-02-26T22:00:20.368Z,88.90
2019-02-26T22:02:52.010Z,89.20
2019-02-26T22:05:19.030Z,89.40
2019-02-26T22:07:51.901Z,89.30
2019-02-26T22:10:21.959Z,89.60
2019-02-26T22:12:50.348Z,89.70
2019-02-26T22:15:18.772Z,89.70
2019-02-26T22:17:47.168Z,89.70
2019-02-26T22:20:26.656Z,90.00
2019-02-26T22:22:47.871Z,90.10
2019-02-26T22:25:17.434Z,90.10
2019-02-26T22:27:46.153Z,90.20
2019-02-26T22:30:22.057Z,90.30
2019-02-26T22:32:49.753Z,90.40
2019-02-26T22:35:18.137Z,90.40
2019-02-26T22:37:46.551Z,90.60
2019-02-26T22:40:15.387Z,90.60
2019-02-26T22:42:43.867Z,90.80
2019-02-26T22:45:14.124Z,90.80
2019-02-26T22:47:44.123Z,91.00
2019-02-26T22:50:14.340Z,91.00
2019-02-26T22:52:43.226Z,91.10
2019-02-26T22:55:16.034Z,91.10
2019-02-26T22:57:43.564Z,91.20
2019-02-26T23:00:19.423Z,91.10
2019-02-26T23:02:47.813Z,91.20
2019-02-26T23:05:16.273Z,91.40
2019-02-26T23:07:45.033Z,91.40
2019-02-26T23:10:13.993Z,91.50
2019-02-26T23:12:42.443Z,91.60
2019-02-26T23:15:11.980Z,92.20
2019-02-26T23:17:41.432Z,91.90
2019-02-26T23:20:11.353Z,92.30
2019-02-26T23:22:40.515Z,92.10
2019-02-26T23:25:09.476Z,92.10
2019-02-26T23:27:37.935Z,92.20
2019-02-26T23:30:09.747Z,92.30
2019-02-26T23:32:38.906Z,92.20
2019-02-26T23:35:15.208Z,92.20
2019-02-26T23:37:43.764Z,92.30
2019-02-26T23:40:15.094Z,92.50
2019-02-26T23:42:43.597Z,92.70
2019-02-26T23:45:12.957Z,92.80
2019-02-26T23:47:41.424Z,92.90
2019-02-26T23:50:11.211Z,93.00
2019-02-26T23:52:39.937Z,93.00
2019-02-26T23:55:14.220Z,93.20
2019-02-26T23:57:42.652Z,93.10
